sensor_id;sensor_type;location;lat;lon;timestamp;pressure;altitude;pressure_sealevel;temperature;humidity
72285;BME280;60220;53.552;10.092;2024-03-08T00:01:07;102219.88;;;3.87;100.00
72285;BME280;60220;53.552;10.092;2024-03-08T00:03:34;102221.03;;;3.51;100.00
72285;BME280;60220;53.552;10.092;2024-03-08T00:06:00;102225.19;;;3.68;100.00
72285;BME280;60220;53.552;10.092;2024-03-08T00:08:27;102226.56;;;4.05;100.00
72285;BME280;60220;53.552;10.092;2024-03-08T00:10:53;102217.25;;;3.65;100.00
72285;BME280;60220;53.552;10.092;2024-03-08T00:13:20;102211.00;;;3.82;100.00
72285;BME280;60220;53.552;10.092;2024-03-08T00:15:47;102211.25;;;3.66;100.00
72285;BME280;60220;53.552;10.092;2024-03-08T00:18:15;102204.88;;;3.58;100.00
72285;BME280;60220;53.552;10.092;2024-03-08T00:20:41;102201.19;;;3.75;100.00
72285;BME280;60220;53.552;10.092;2024-03-08T00:23:11;102206.53;;;3.78;100.00
72285;BME280;60220;53.552;10.092;2024-03-08T00:25:38;102210.97;;;4.05;100.00
72285;BME280;60220;53.552;10.092;2024-03-08T00:28:05;102207.59;;;3.61;100.00
72285;BME280;60220;53.552;10.092;2024-03-08T00:30:32;102213.28;;;3.97;100.00
72285;BME280;60220;53.552;10.092;2024-03-08T00:33:01;102213.56;;;4.05;100.00
72285;BME280;60220;53.552;10.092;2024-03-08T00:35:29;102206.28;;;3.72;100.00
72285;BME280;60220;53.552;10.092;2024-03-08T00:37:55;102203.47;;;3.66;100.00
72285;BME280;60220;53.552;10.092;2024-03-08T00:40:25;102205.09;;;3.64;100.00
72285;BME280;60220;53.552;10.092;2024-03-08T00:42:51;102209.00;;;3.53;100.00
72285;BME280;60220;53.552;10.092;2024-03-08T00:45:19;102206.34;;;3.52;100.00
72285;BME280;60220;53.552;10.092;2024-03-08T00:47:47;102205.56;;;3.32;100.00
72285;BME280;60220;53.552;10.092;2024-03-08T00:50:14;102209.94;;;3.33;100.00
72285;BME280;60220;53.552;10.092;2024-03-08T00:52:42;102203.69;;;3.50;100.00
72285;BME280;60220;53.552;10.092;2024-03-08T00:55:08;102211.03;;;3.39;100.00
72285;BME280;60220;53.552;10.092;2024-03-08T00:57:35;102207.25;;;3.52;100.00
72285;BME280;60220;53.552;10.092;2024-03-08T01:00:05;102201.19;;;3.75;100.00
72285;BME280;60220;53.552;10.092;2024-03-08T01:02:33;102198.78;;;3.35;100.00
72285;BME280;60220;53.552;10.092;2024-03-08T01:05:00;102203.78;;;3.09;100.00
72285;BME280;60220;53.552;10.092;2024-03-08T01:07:30;102197.09;;;3.15;100.00
72285;BME280;60220;53.552;10.092;2024-03-08T01:09:57;102201.94;;;3.06;100.00
72285;BME280;60220;53.552;10.092;2024-03-08T01:12:24;102192.09;;;2.99;100.00
72285;BME280;60220;53.552;10.092;2024-03-08T01:14:51;102186.34;;;3.27;100.00
72285;BME280;60220;53.552;10.092;2024-03-08T01:17:17;102186.34;;;3.49;100.00
72285;BME280;60220;53.552;10.092;2024-03-08T01:19:44;102181.56;;;2.94;100.00
72285;BME280;60220;53.552;10.092;2024-03-08T01:22:11;102177.25;;;2.74;100.00
72285;BME280;60220;53.552;10.092;2024-03-08T01:24:37;102175.91;;;3.04;100.00
72285;BME280;60220;53.552;10.092;2024-03-08T01:27:05;102166.84;;;2.93;100.00
72285;BME280;60220;53.552;10.092;2024-03-08T01:29:34;102174.88;;;2.79;100.00
72285;BME280;60220;53.552;10.092;2024-03-08T01:32:01;102160.25;;;3.01;100.00
72285;BME280;60220;53.552;10.092;2024-03-08T01:34:30;102156.03;;;3.48;100.00
72285;BME280;60220;53.552;10.092;2024-03-08T01:37:01;102153.19;;;3.20;100.00
72285;BME280;60220;53.552;10.092;2024-03-08T01:39:27;102144.94;;;3.30;100.00
72285;BME280;60220;53.552;10.092;2024-03-08T01:41:54;102141.13;;;2.99;100.00
72285;BME280;60220;53.552;10.092;2024-03-08T01:44:22;102141.53;;;3.09;100.00
72285;BME280;60220;53.552;10.092;2024-03-08T01:46:49;102136.34;;;2.46;100.00
72285;BME280;60220;53.552;10.092;2024-03-08T01:49:18;102137.25;;;2.88;100.00
72285;BME280;60220;53.552;10.092;2024-03-08T01:51:47;102136.31;;;3.09;100.00
72285;BME280;60220;53.552;10.092;2024-03-08T01:54:16;102133.78;;;2.67;100.00
72285;BME280;60220;53.552;10.092;2024-03-08T01:56:45;102130.53;;;2.73;100.00
72285;BME280;60220;53.552;10.092;2024-03-08T01:59:12;102124.03;;;2.82;100.00
72285;BME280;60220;53.552;10.092;2024-03-08T02:01:43;102118.91;;;2.63;100.00
72285;BME280;60220;53.552;10.092;2024-03-08T02:04:10;102115.44;;;3.06;100.00
72285;BME280;60220;53.552;10.092;2024-03-08T02:06:37;102116.25;;;2.82;100.00
72285;BME280;60220;53.552;10.092;2024-03-08T02:09:04;102113.06;;;2.89;100.00
72285;BME280;60220;53.552;10.092;2024-03-08T02:11:35;102115.03;;;2.74;100.00
72285;BME280;60220;53.552;10.092;2024-03-08T02:14:02;102123.84;;;3.00;100.00
72285;BME280;60220;53.552;10.092;2024-03-08T02:16:29;102117.50;;;2.71;100.00
72285;BME280;60220;53.552;10.092;2024-03-08T02:18:57;102110.53;;;2.70;100.00
72285;BME280;60220;53.552;10.092;2024-03-08T02:21:28;102110.91;;;2.79;100.00
72285;BME280;60220;53.552;10.092;2024-03-08T02:23:58;102105.19;;;3.09;100.00
72285;BME280;60220;53.552;10.092;2024-03-08T02:26:25;102105.00;;;2.61;100.00
72285;BME280;60220;53.552;10.092;2024-03-08T02:28:52;102108.78;;;2.69;100.00
72285;BME280;60220;53.552;10.092;2024-03-08T02:31:19;102106.66;;;2.38;100.00
72285;BME280;60220;53.552;10.092;2024-03-08T02:33:47;102108.59;;;2.65;100.00
72285;BME280;60220;53.552;10.092;2024-03-08T02:36:13;102108.28;;;2.57;100.00
72285;BME280;60220;53.552;10.092;2024-03-08T02:38:45;102103.28;;;2.41;100.00
72285;BME280;60220;53.552;10.092;2024-03-08T02:41:11;102111.50;;;2.72;100.00
72285;BME280;60220;53.552;10.092;2024-03-08T02:43:38;102108.19;;;2.54;100.00
72285;BME280;60220;53.552;10.092;2024-03-08T02:46:05;102105.88;;;2.82;100.00
72285;BME280;60220;53.552;10.092;2024-03-08T02:48:31;102102.22;;;2.77;100.00
72285;BME280;60220;53.552;10.092;2024-03-08T02:50:58;102095.34;;;2.79;100.00
72285;BME280;60220;53.552;10.092;2024-03-08T02:53:25;102087.63;;;2.58;100.00
72285;BME280;60220;53.552;10.092;2024-03-08T02:55:52;102092.53;;;2.32;100.00
72285;BME280;60220;53.552;10.092;2024-03-08T02:58:20;102096.41;;;2.41;100.00
72285;BME280;60220;53.552;10.092;2024-03-08T03:00:47;102086.47;;;2.52;100.00
72285;BME280;60220;53.552;10.092;2024-03-08T03:03:13;102082.75;;;2.45;100.00
72285;BME280;60220;53.552;10.092;2024-03-08T03:05:40;102081.84;;;2.45;100.00
72285;BME280;60220;53.552;10.092;2024-03-08T03:08:07;102077.72;;;2.48;100.00
72285;BME280;60220;53.552;10.092;2024-03-08T03:10:35;102079.59;;;2.73;100.00
72285;BME280;60220;53.552;10.092;2024-03-08T03:13:05;102076.28;;;2.77;100.00
72285;BME280;60220;53.552;10.092;2024-03-08T03:15:34;102083.06;;;2.74;100.00
72285;BME280;60220;53.552;10.092;2024-03-08T03:18:01;102077.16;;;2.78;100.00
72285;BME280;60220;53.552;10.092;2024-03-08T03:20:28;102079.06;;;2.61;100.00
72285;BME280;60220;53.552;10.092;2024-03-08T03:22:58;102081.38;;;2.33;100.00
72285;BME280;60220;53.552;10.092;2024-03-08T03:25:29;102078.41;;;2.04;100.00
72285;BME280;60220;53.552;10.092;2024-03-08T03:27:59;102081.97;;;2.06;100.00
72285;BME280;60220;53.552;10.092;2024-03-08T03:30:30;102081.22;;;2.30;100.00
72285;BME280;60220;53.552;10.092;2024-03-08T03:32:58;102079.91;;;2.19;100.00
72285;BME280;60220;53.552;10.092;2024-03-08T03:35:28;102073.00;;;2.40;100.00
72285;BME280;60220;53.552;10.092;2024-03-08T03:37:55;102079.88;;;1.98;100.00
72285;BME280;60220;53.552;10.092;2024-03-08T03:40:32;102081.97;;;2.06;100.00
72285;BME280;60220;53.552;10.092;2024-03-08T03:42:58;102072.19;;;2.41;100.00
72285;BME280;60220;53.552;10.092;2024-03-08T03:45:25;102078.56;;;2.07;100.00
72285;BME280;60220;53.552;10.092;2024-03-08T03:47:53;102073.38;;;2.07;100.00
72285;BME280;60220;53.552;10.092;2024-03-08T03:50:20;102067.84;;;2.19;100.00
72285;BME280;60220;53.552;10.092;2024-03-08T03:52:51;102073.13;;;2.01;100.00
72285;BME280;60220;53.552;10.092;2024-03-08T03:55:17;102081.47;;;2.36;100.00
72285;BME280;60220;53.552;10.092;2024-03-08T03:57:45;102073.78;;;2.16;100.00
72285;BME280;60220;53.552;10.092;2024-03-08T04:00:14;102072.75;;;2.13;100.00
72285;BME280;60220;53.552;10.092;2024-03-08T04:02:41;102073.63;;;2.55;100.00
72285;BME280;60220;53.552;10.092;2024-03-08T04:05:10;102070.66;;;2.04;100.00
72285;BME280;60220;53.552;10.092;2024-03-08T04:07:37;102066.97;;;2.19;100.00
72285;BME280;60220;53.552;10.092;2024-03-08T04:10:08;102070.38;;;2.17;100.00
72285;BME280;60220;53.552;10.092;2024-03-08T04:12:36;102070.94;;;2.31;100.00
72285;BME280;60220;53.552;10.092;2024-03-08T04:15:03;102073.84;;;2.18;100.00
72285;BME280;60220;53.552;10.092;2024-03-08T04:17:32;102070.38;;;2.59;100.00
72285;BME280;60220;53.552;10.092;2024-03-08T04:20:04;102072.00;;;2.36;100.00
72285;BME280;60220;53.552;10.092;2024-03-08T04:22:36;102065.19;;;2.38;100.00
72285;BME280;60220;53.552;10.092;2024-03-08T04:25:03;102066.13;;;2.20;100.00
72285;BME280;60220;53.552;10.092;2024-03-08T04:27:30;102064.84;;;2.72;100.00
72285;BME280;60220;53.552;10.092;2024-03-08T04:29:58;102060.75;;;2.36;100.00
72285;BME280;60220;53.552;10.092;2024-03-08T04:32:24;102063.75;;;2.05;100.00
72285;BME280;60220;53.552;10.092;2024-03-08T04:34:51;102052.69;;;2.49;100.00
72285;BME280;60220;53.552;10.092;2024-03-08T04:37:17;102055.03;;;2.43;100.00
72285;BME280;60220;53.552;10.092;2024-03-08T04:39:47;102058.75;;;2.29;100.00
72285;BME280;60220;53.552;10.092;2024-03-08T04:42:15;102057.06;;;2.72;100.00
72285;BME280;60220;53.552;10.092;2024-03-08T04:44:45;102053.88;;;2.36;100.00
72285;BME280;60220;53.552;10.092;2024-03-08T04:47:12;102048.31;;;2.27;100.00
72285;BME280;60220;53.552;10.092;2024-03-08T04:49:39;102051.41;;;1.98;100.00
72285;BME280;60220;53.552;10.092;2024-03-08T04:52:06;102053.53;;;1.87;100.00
72285;BME280;60220;53.552;10.092;2024-03-08T04:54:33;102048.22;;;1.84;100.00
72285;BME280;60220;53.552;10.092;2024-03-08T04:57:01;102044.31;;;2.14;100.00
72285;BME280;60220;53.552;10.092;2024-03-08T04:59:27;102045.44;;;2.00;100.00
72285;BME280;60220;53.552;10.092;2024-03-08T05:01:54;102043.56;;;1.96;100.00
72285;BME280;60220;53.552;10.092;2024-03-08T05:04:21;102035.06;;;1.80;100.00
72285;BME280;60220;53.552;10.092;2024-03-08T05:06:48;102039.75;;;1.88;100.00
72285;BME280;60220;53.552;10.092;2024-03-08T05:09:17;102038.09;;;1.90;100.00
72285;BME280;60220;53.552;10.092;2024-03-08T05:11:45;102038.03;;;2.08;100.00
72285;BME280;60220;53.552;10.092;2024-03-08T05:14:14;102034.41;;;2.04;100.00
72285;BME280;60220;53.552;10.092;2024-03-08T05:16:42;102037.19;;;2.09;100.00
72285;BME280;60220;53.552;10.092;2024-03-08T05:19:08;102038.06;;;1.89;100.00
72285;BME280;60220;53.552;10.092;2024-03-08T05:21:35;102034.84;;;1.94;100.00
72285;BME280;60220;53.552;10.092;2024-03-08T05:24:02;102031.81;;;2.04;100.00
72285;BME280;60220;53.552;10.092;2024-03-08T05:26:29;102025.78;;;1.64;100.00
72285;BME280;60220;53.552;10.092;2024-03-08T05:28:59;102031.03;;;1.86;100.00
72285;BME280;60220;53.552;10.092;2024-03-08T05:31:32;102029.66;;;1.73;100.00
72285;BME280;60220;53.552;10.092;2024-03-08T05:34:02;102035.81;;;1.77;100.00
72285;BME280;60220;53.552;10.092;2024-03-08T05:36:29;102032.78;;;1.66;100.00
72285;BME280;60220;53.552;10.092;2024-03-08T05:38:59;102030.28;;;1.29;100.00
72285;BME280;60220;53.552;10.092;2024-03-08T05:41:26;102031.06;;;1.67;100.00
72285;BME280;60220;53.552;10.092;2024-03-08T05:43:52;102025.34;;;1.74;100.00
72285;BME280;60220;53.552;10.092;2024-03-08T05:46:19;102018.09;;;1.86;100.00
72285;BME280;60220;53.552;10.092;2024-03-08T05:48:48;102019.31;;;1.94;100.00
72285;BME280;60220;53.552;10.092;2024-03-08T05:51:15;102027.91;;;1.93;100.00
72285;BME280;60220;53.552;10.092;2024-03-08T05:53:42;102017.31;;;1.68;100.00
72285;BME280;60220;53.552;10.092;2024-03-08T05:56:08;102021.06;;;1.55;100.00
72285;BME280;60220;53.552;10.092;2024-03-08T05:58:35;102019.31;;;1.54;100.00
72285;BME280;60220;53.552;10.092;2024-03-08T06:01:02;102019.34;;;1.56;100.00
72285;BME280;60220;53.552;10.092;2024-03-08T06:03:33;102024.00;;;1.63;100.00
72285;BME280;60220;53.552;10.092;2024-03-08T06:06:03;102028.78;;;2.14;100.00
72285;BME280;60220;53.552;10.092;2024-03-08T06:08:30;102026.72;;;2.27;100.00
72285;BME280;60220;53.552;10.092;2024-03-08T06:10:57;102028.38;;;1.85;100.00
72285;BME280;60220;53.552;10.092;2024-03-08T06:13:24;102026.44;;;1.79;100.00
72285;BME280;60220;53.552;10.092;2024-03-08T06:15:51;102026.88;;;2.10;100.00
72285;BME280;60220;53.552;10.092;2024-03-08T06:18:17;102030.91;;;1.83;100.00
72285;BME280;60220;53.552;10.092;2024-03-08T06:20:44;102031.81;;;1.84;100.00
72285;BME280;60220;53.552;10.092;2024-03-08T06:23:12;102032.59;;;2.43;100.00
72285;BME280;60220;53.552;10.092;2024-03-08T06:25:43;102029.81;;;2.18;100.00
72285;BME280;60220;53.552;10.092;2024-03-08T06:28:09;102030.41;;;1.92;100.00
72285;BME280;60220;53.552;10.092;2024-03-08T06:30:36;102022.16;;;2.42;100.00
72285;BME280;60220;53.552;10.092;2024-03-08T06:33:03;102023.59;;;2.14;100.00
72285;BME280;60220;53.552;10.092;2024-03-08T06:35:31;102020.19;;;2.15;100.00
72285;BME280;60220;53.552;10.092;2024-03-08T06:37:58;102021.59;;;2.49;100.00
72285;BME280;60220;53.552;10.092;2024-03-08T06:40:26;102011.59;;;2.16;100.00
72285;BME280;60220;53.552;10.092;2024-03-08T06:42:53;102013.59;;;1.82;100.00
72285;BME280;60220;53.552;10.092;2024-03-08T06:45:19;102018.91;;;2.47;100.00
72285;BME280;60220;53.552;10.092;2024-03-08T06:47:46;102025.00;;;2.06;100.00
72285;BME280;60220;53.552;10.092;2024-03-08T06:50:13;102015.41;;;2.04;100.00
72285;BME280;60220;53.552;10.092;2024-03-08T06:52:40;102011.88;;;1.62;100.00
72285;BME280;60220;53.552;10.092;2024-03-08T06:55:08;102018.31;;;2.32;100.00
72285;BME280;60220;53.552;10.092;2024-03-08T06:57:38;102010.97;;;2.43;100.00
72285;BME280;60220;53.552;10.092;2024-03-08T07:00:07;102009.47;;;2.06;100.00
72285;BME280;60220;53.552;10.092;2024-03-08T07:02:35;102000.88;;;2.07;100.00
72285;BME280;60220;53.552;10.092;2024-03-08T07:05:01;102011.84;;;2.02;100.00
72285;BME280;60220;53.552;10.092;2024-03-08T07:07:28;102013.00;;;2.08;100.00
72285;BME280;60220;53.552;10.092;2024-03-08T07:09:57;102009.56;;;2.09;100.00
72285;BME280;60220;53.552;10.092;2024-03-08T07:12:24;102011.22;;;2.07;100.00
72285;BME280;60220;53.552;10.092;2024-03-08T07:14:52;102013.00;;;2.08;100.00
72285;BME280;60220;53.552;10.092;2024-03-08T07:17:19;102014.81;;;2.32;100.00
72285;BME280;60220;53.552;10.092;2024-03-08T07:19:46;102011.78;;;2.64;100.00
72285;BME280;60220;53.552;10.092;2024-03-08T07:22:12;102002.00;;;2.79;100.00
72285;BME280;60220;53.552;10.092;2024-03-08T07:24:40;102008.16;;;3.03;100.00
72285;BME280;60220;53.552;10.092;2024-03-08T07:27:21;102004.03;;;2.86;100.00
72285;BME280;60220;53.552;10.092;2024-03-08T07:29:48;102003.03;;;2.17;100.00
72285;BME280;60220;53.552;10.092;2024-03-08T07:32:16;102002.88;;;2.14;100.00
72285;BME280;60220;53.552;10.092;2024-03-08T07:34:47;102001.22;;;2.58;100.00
72285;BME280;60220;53.552;10.092;2024-03-08T07:37:14;102006.25;;;2.55;100.00
72285;BME280;60220;53.552;10.092;2024-03-08T07:39:41;102009.91;;;3.04;100.00
72285;BME280;60220;53.552;10.092;2024-03-08T07:42:08;102009.88;;;3.27;100.00
72285;BME280;60220;53.552;10.092;2024-03-08T07:44:36;102006.38;;;3.02;100.00
72285;BME280;60220;53.552;10.092;2024-03-08T07:47:03;102004.13;;;2.89;100.00
72285;BME280;60220;53.552;10.092;2024-03-08T07:49:31;102013.34;;;2.59;100.00
72285;BME280;60220;53.552;10.092;2024-03-08T07:51:58;102005.94;;;2.68;100.00
72285;BME280;60220;53.552;10.092;2024-03-08T07:54:24;102004.19;;;3.13;100.00
72285;BME280;60220;53.552;10.092;2024-03-08T07:56:54;102013.75;;;3.38;100.00
72285;BME280;60220;53.552;10.092;2024-03-08T07:59:23;101997.84;;;3.53;100.00
72285;BME280;60220;53.552;10.092;2024-03-08T08:01:50;101999.09;;;3.87;100.00
72285;BME280;60220;53.552;10.092;2024-03-08T08:04:16;102006.72;;;3.59;100.00
72285;BME280;60220;53.552;10.092;2024-03-08T08:06:45;101987.72;;;4.11;100.00
72285;BME280;60220;53.552;10.092;2024-03-08T08:09:12;101999.28;;;3.21;100.00
72285;BME280;60220;53.552;10.092;2024-03-08T08:11:40;101998.34;;;3.66;100.00
72285;BME280;60220;53.552;10.092;2024-03-08T08:14:10;101999.16;;;3.65;100.00
72285;BME280;60220;53.552;10.092;2024-03-08T08:16:37;101992.69;;;3.54;100.00
72285;BME280;60220;53.552;10.092;2024-03-08T08:19:06;101986.31;;;3.70;100.00
72285;BME280;60220;53.552;10.092;2024-03-08T08:21:34;101988.94;;;3.70;100.00
72285;BME280;60220;53.552;10.092;2024-03-08T08:24:03;101984.28;;;4.39;100.00
72285;BME280;60220;53.552;10.092;2024-03-08T08:26:30;101988.47;;;4.60;100.00
72285;BME280;60220;53.552;10.092;2024-03-08T08:28:58;101981.50;;;4.88;100.00
72285;BME280;60220;53.552;10.092;2024-03-08T08:31:25;101986.97;;;4.13;100.00
72285;BME280;60220;53.552;10.092;2024-03-08T08:33:51;101986.25;;;3.92;100.00
72285;BME280;60220;53.552;10.092;2024-03-08T08:36:23;101986.75;;;4.61;100.00
72285;BME280;60220;53.552;10.092;2024-03-08T08:38:50;101987.38;;;4.54;100.00
72285;BME280;60220;53.552;10.092;2024-03-08T08:41:20;101979.41;;;4.48;100.00
72285;BME280;60220;53.552;10.092;2024-03-08T08:43:47;101977.22;;;5.18;100.00
72285;BME280;60220;53.552;10.092;2024-03-08T08:46:16;101979.88;;;4.63;100.00
72285;BME280;60220;53.552;10.092;2024-03-08T08:48:44;101974.41;;;5.12;100.00
72285;BME280;60220;53.552;10.092;2024-03-08T08:51:11;101967.38;;;5.39;100.00
72285;BME280;60220;53.552;10.092;2024-03-08T08:53:41;101969.19;;;6.43;100.00
72285;BME280;60220;53.552;10.092;2024-03-08T08:56:10;101965.75;;;6.83;100.00
72285;BME280;60220;53.552;10.092;2024-03-08T08:58:39;101963.47;;;6.21;100.00
72285;BME280;60220;53.552;10.092;2024-03-08T09:01:07;101956.22;;;6.45;100.00
72285;BME280;60220;53.552;10.092;2024-03-08T09:03:37;101958.16;;;6.18;100.00
72285;BME280;60220;53.552;10.092;2024-03-08T09:06:06;101958.13;;;6.92;100.00
72285;BME280;60220;53.552;10.092;2024-03-08T09:08:35;101951.53;;;6.30;100.00
72285;BME280;60220;53.552;10.092;2024-03-08T09:11:01;101953.16;;;5.91;100.00
72285;BME280;60220;53.552;10.092;2024-03-08T09:13:28;101956.72;;;5.94;100.00
72285;BME280;60220;53.552;10.092;2024-03-08T09:15:56;101948.78;;;5.58;100.00
72285;BME280;60220;53.552;10.092;2024-03-08T09:18:23;101943.03;;;6.03;100.00
72285;BME280;60220;53.552;10.092;2024-03-08T09:20:52;101943.06;;;6.40;100.00
72285;BME280;60220;53.552;10.092;2024-03-08T09:23:19;101933.31;;;6.33;100.00
72285;BME280;60220;53.552;10.092;2024-03-08T09:25:46;101926.94;;;5.86;100.00
72285;BME280;60220;53.552;10.092;2024-03-08T09:28:13;101932.06;;;6.16;100.00
72285;BME280;60220;53.552;10.092;2024-03-08T09:30:39;101916.47;;;5.85;100.00
72285;BME280;60220;53.552;10.092;2024-03-08T09:33:07;101916.50;;;6.57;100.00
72285;BME280;60220;53.552;10.092;2024-03-08T09:35:35;101915.94;;;6.32;100.00
72285;BME280;60220;53.552;10.092;2024-03-08T09:38:01;101914.53;;;6.48;100.00
72285;BME280;60220;53.552;10.092;2024-03-08T09:40:30;101911.63;;;6.34;100.00
72285;BME280;60220;53.552;10.092;2024-03-08T09:42:57;101909.97;;;6.38;100.00
72285;BME280;60220;53.552;10.092;2024-03-08T09:45:24;101911.78;;;6.40;100.00
72285;BME280;60220;53.552;10.092;2024-03-08T09:47:51;101906.16;;;5.88;100.00
72285;BME280;60220;53.552;10.092;2024-03-08T09:50:21;101894.63;;;6.14;100.00
72285;BME280;60220;53.552;10.092;2024-03-08T09:52:48;101893.69;;;6.11;100.00
72285;BME280;60220;53.552;10.092;2024-03-08T09:55:16;101889.69;;;5.89;100.00
72285;BME280;60220;53.552;10.092;2024-03-08T09:57:47;101891.34;;;5.52;100.00
72285;BME280;60220;53.552;10.092;2024-03-08T10:00:42;101877.03;;;6.82;100.00
72285;BME280;60220;53.552;10.092;2024-03-08T10:03:09;101877.22;;;6.51;100.00
72285;BME280;60220;53.552;10.092;2024-03-08T10:05:37;101875.91;;;6.30;100.00
72285;BME280;60220;53.552;10.092;2024-03-08T10:08:06;101876.03;;;6.77;100.00
72285;BME280;60220;53.552;10.092;2024-03-08T10:10:36;101868.50;;;6.11;100.00
72285;BME280;60220;53.552;10.092;2024-03-08T10:13:05;101867.28;;;6.34;100.00
72285;BME280;60220;53.552;10.092;2024-03-08T10:15:32;101859.34;;;6.69;100.00
72285;BME280;60220;53.552;10.092;2024-03-08T10:17:59;101858.75;;;6.82;100.00
72285;BME280;60220;53.552;10.092;2024-03-08T10:20:28;101851.28;;;7.00;100.00
72285;BME280;60220;53.552;10.092;2024-03-08T10:23:00;101856.25;;;6.88;100.00
72285;BME280;60220;53.552;10.092;2024-03-08T10:25:28;101852.47;;;7.67;100.00
72285;BME280;60220;53.552;10.092;2024-03-08T10:27:55;101854.19;;;6.72;100.00
72285;BME280;60220;53.552;10.092;2024-03-08T10:30:24;101834.53;;;7.35;100.00
72285;BME280;60220;53.552;10.092;2024-03-08T10:32:51;101839.28;;;7.10;100.00
72285;BME280;60220;53.552;10.092;2024-03-08T10:35:18;101830.59;;;7.11;100.00
72285;BME280;60220;53.552;10.092;2024-03-08T10:37:49;101833.50;;;7.77;100.00
72285;BME280;60220;53.552;10.092;2024-03-08T10:40:26;101815.47;;;7.43;100.00
72285;BME280;60220;53.552;10.092;2024-03-08T10:42:54;101817.81;;;7.77;100.00
72285;BME280;60220;53.552;10.092;2024-03-08T10:45:29;101821.88;;;7.60;100.00
72285;BME280;60220;53.552;10.092;2024-03-08T10:48:04;101812.41;;;7.15;100.00
72285;BME280;60220;53.552;10.092;2024-03-08T10:50:35;101805.56;;;7.23;100.00
72285;BME280;60220;53.552;10.092;2024-03-08T10:53:06;101805.19;;;7.53;100.00
72285;BME280;60220;53.552;10.092;2024-03-08T10:55:37;101797.00;;;8.48;100.00
72285;BME280;60220;53.552;10.092;2024-03-08T10:58:06;101798.00;;;8.56;97.47
72285;BME280;60220;53.552;10.092;2024-03-08T11:00:33;101798.13;;;7.48;100.00
72285;BME280;60220;53.552;10.092;2024-03-08T11:03:03;101795.25;;;6.83;100.00
72285;BME280;60220;53.552;10.092;2024-03-08T11:05:37;101792.91;;;7.48;100.00
72285;BME280;60220;53.552;10.092;2024-03-08T11:08:16;101789.06;;;6.78;100.00
72285;BME280;60220;53.552;10.092;2024-03-08T11:10:48;101792.19;;;7.05;100.00
72285;BME280;60220;53.552;10.092;2024-03-08T11:13:42;101777.59;;;7.16;100.00
72285;BME280;60220;53.552;10.092;2024-03-08T11:16:10;101772.66;;;7.33;100.00
72285;BME280;60220;53.552;10.092;2024-03-08T11:18:37;101772.53;;;7.25;100.00
72285;BME280;60220;53.552;10.092;2024-03-08T11:21:08;101773.22;;;7.66;100.00
72285;BME280;60220;53.552;10.092;2024-03-08T11:23:40;101758.41;;;7.67;100.00
72285;BME280;60220;53.552;10.092;2024-03-08T11:26:18;101768.66;;;8.15;99.40
72285;BME280;60220;53.552;10.092;2024-03-08T11:28:45;101764.50;;;7.66;100.00
72285;BME280;60220;53.552;10.092;2024-03-08T11:31:25;101759.09;;;8.17;94.79
72285;BME280;60220;53.552;10.092;2024-03-08T11:33:52;101751.28;;;7.04;100.00
72285;BME280;60220;53.552;10.092;2024-03-08T11:36:21;101750.38;;;7.02;100.00
72285;BME280;60220;53.552;10.092;2024-03-08T11:38:51;101744.56;;;7.17;100.00
72285;BME280;60220;53.552;10.092;2024-03-08T11:41:22;101732.53;;;7.26;100.00
72285;BME280;60220;53.552;10.092;2024-03-08T11:43:50;101740.03;;;7.62;100.00
72285;BME280;60220;53.552;10.092;2024-03-08T11:46:30;101741.31;;;7.90;94.74
72285;BME280;60220;53.552;10.092;2024-03-08T11:48:57;101733.06;;;8.28;88.96
72285;BME280;60220;53.552;10.092;2024-03-08T11:51:23;101733.56;;;7.98;90.02
72285;BME280;60220;53.552;10.092;2024-03-08T11:53:50;101727.00;;;7.64;97.60
72285;BME280;60220;53.552;10.092;2024-03-08T11:56:17;101723.13;;;7.99;97.86
72285;BME280;60220;53.552;10.092;2024-03-08T11:58:54;101720.19;;;8.43;90.39
72285;BME280;60220;53.552;10.092;2024-03-08T12:01:23;101716.34;;;8.92;87.40
72285;BME280;60220;53.552;10.092;2024-03-08T12:03:52;101711.13;;;8.93;93.16
72285;BME280;60220;53.552;10.092;2024-03-08T12:06:19;101714.94;;;9.32;81.99
72285;BME280;60220;53.552;10.092;2024-03-08T12:08:46;101713.97;;;9.16;75.53
72285;BME280;60220;53.552;10.092;2024-03-08T12:11:14;101700.28;;;8.57;80.49
72285;BME280;60220;53.552;10.092;2024-03-08T12:13:41;101701.78;;;9.23;75.61
72285;BME280;60220;53.552;10.092;2024-03-08T12:16:09;101698.09;;;8.99;79.18
72285;BME280;60220;53.552;10.092;2024-03-08T12:18:37;101682.66;;;9.37;78.34
72285;BME280;60220;53.552;10.092;2024-03-08T12:21:05;101678.78;;;8.88;87.82
72285;BME280;60220;53.552;10.092;2024-03-08T12:23:33;101677.66;;;8.62;84.69
72285;BME280;60220;53.552;10.092;2024-03-08T12:26:11;101672.16;;;8.35;84.07
72285;BME280;60220;53.552;10.092;2024-03-08T12:28:38;101674.28;;;7.95;82.44
72285;BME280;60220;53.552;10.092;2024-03-08T12:31:10;101673.28;;;8.59;84.13
72285;BME280;60220;53.552;10.092;2024-03-08T12:33:48;101668.91;;;8.58;78.73
72285;BME280;60220;53.552;10.092;2024-03-08T12:36:15;101672.50;;;8.68;77.34
72285;BME280;60220;53.552;10.092;2024-03-08T12:38:43;101656.34;;;9.16;79.17
72285;BME280;60220;53.552;10.092;2024-03-08T12:41:13;101650.06;;;8.94;74.69
72285;BME280;60220;53.552;10.092;2024-03-08T12:43:39;101652.88;;;8.28;86.94
72285;BME280;60220;53.552;10.092;2024-03-08T12:46:10;101648.72;;;8.47;92.71